sensor_id;sensor_type;location;lat;lon;timestamp;P1;durP1;ratioP1;P2;durP2;ratioP2
2656;SDS011;1338;48.176;11.792;2023-03-14T00:00:11;1.70;;;1.60;;
2656;SDS011;1338;48.176;11.792;2023-03-14T00:02:43;1.47;;;1.37;;
2656;SDS011;1338;48.176;11.792;2023-03-14T00:05:13;1.90;;;1.57;;
2656;SDS011;1338;48.176;11.792;2023-03-14T00:07:42;2.27;;;1.70;;
2656;SDS011;1338;48.176;11.792;2023-03-14T00:10:11;1.50;;;1.40;;
2656;SDS011;1338;48.176;11.792;2023-03-14T00:12:42;1.40;;;1.30;;
2656;SDS011;1338;48.176;11.792;2023-03-14T00:15:11;1.50;;;1.40;;
2656;SDS011;1338;48.176;11.792;2023-03-14T00:17:40;1.93;;;1.60;;
2656;SDS011;1338;48.176;11.792;2023-03-14T00:20:13;1.40;;;1.30;;
2656;SDS011;1338;48.176;11.792;2023-03-14T00:22:43;1.40;;;1.30;;
2656;SDS011;1338;48.176;11.792;2023-03-14T00:25:12;1.53;;;1.43;;
2656;SDS011;1338;48.176;11.792;2023-03-14T00:27:40;1.63;;;1.53;;
2656;SDS011;1338;48.176;11.792;2023-03-14T00:30:12;1.70;;;1.60;;
2656;SDS011;1338;48.176;11.792;2023-03-14T00:32:41;1.63;;;1.53;;
2656;SDS011;1338;48.176;11.792;2023-03-14T00:35:10;3.93;;;1.53;;
2656;SDS011;1338;48.176;11.792;2023-03-14T00:37:41;1.77;;;1.67;;
2656;SDS011;1338;48.176;11.792;2023-03-14T00:40:10;1.50;;;1.40;;
2656;SDS011;1338;48.176;11.792;2023-03-14T00:42:39;1.50;;;1.40;;
2656;SDS011;1338;48.176;11.792;2023-03-14T00:45:08;1.87;;;1.77;;
2656;SDS011;1338;48.176;11.792;2023-03-14T00:47:37;1.43;;;1.33;;
2656;SDS011;1338;48.176;11.792;2023-03-14T00:50:07;1.63;;;1.53;;
2656;SDS011;1338;48.176;11.792;2023-03-14T00:52:38;2.20;;;1.80;;
2656;SDS011;1338;48.176;11.792;2023-03-14T00:55:10;1.53;;;1.43;;
2656;SDS011;1338;48.176;11.792;2023-03-14T00:57:39;1.70;;;1.60;;
2656;SDS011;1338;48.176;11.792;2023-03-14T01:00:08;2.93;;;1.80;;
2656;SDS011;1338;48.176;11.792;2023-03-14T01:02:39;1.60;;;1.50;;
2656;SDS011;1338;48.176;11.792;2023-03-14T01:05:08;1.67;;;1.50;;
2656;SDS011;1338;48.176;11.792;2023-03-14T01:07:37;1.60;;;1.50;;
2656;SDS011;1338;48.176;11.792;2023-03-14T01:10:07;1.70;;;1.60;;
2656;SDS011;1338;48.176;11.792;2023-03-14T01:12:38;2.43;;;1.50;;
2656;SDS011;1338;48.176;11.792;2023-03-14T01:15:07;1.53;;;1.43;;
2656;SDS011;1338;48.176;11.792;2023-03-14T01:17:37;1.80;;;1.70;;
2656;SDS011;1338;48.176;11.792;2023-03-14T01:20:08;1.80;;;1.70;;
2656;SDS011;1338;48.176;11.792;2023-03-14T01:22:39;1.93;;;1.70;;
2656;SDS011;1338;48.176;11.792;2023-03-14T01:25:10;2.13;;;1.97;;
2656;SDS011;1338;48.176;11.792;2023-03-14T01:27:43;1.60;;;1.40;;
2656;SDS011;1338;48.176;11.792;2023-03-14T01:30:12;1.63;;;1.40;;
2656;SDS011;1338;48.176;11.792;2023-03-14T01:32:43;2.07;;;1.70;;
2656;SDS011;1338;48.176;11.792;2023-03-14T01:35:13;2.00;;;1.90;;
2656;SDS011;1338;48.176;11.792;2023-03-14T01:37:42;1.80;;;1.70;;
2656;SDS011;1338;48.176;11.792;2023-03-14T01:40:16;1.53;;;1.43;;
2656;SDS011;1338;48.176;11.792;2023-03-14T01:42:52;1.60;;;1.40;;
2656;SDS011;1338;48.176;11.792;2023-03-14T01:48:43;1.43;;;1.33;;
2656;SDS011;1338;48.176;11.792;2023-03-14T01:51:17;1.80;;;1.70;;
2656;SDS011;1338;48.176;11.792;2023-03-14T01:53:50;3.40;;;1.50;;
2656;SDS011;1338;48.176;11.792;2023-03-14T01:56:21;1.70;;;1.60;;
2656;SDS011;1338;48.176;11.792;2023-03-14T01:58:52;1.77;;;1.20;;
2656;SDS011;1338;48.176;11.792;2023-03-14T02:01:22;1.70;;;1.60;;
2656;SDS011;1338;48.176;11.792;2023-03-14T02:03:55;2.77;;;1.30;;
2656;SDS011;1338;48.176;11.792;2023-03-14T02:06:29;1.50;;;1.37;;
2656;SDS011;1338;48.176;11.792;2023-03-14T02:09:02;2.30;;;1.50;;
2656;SDS011;1338;48.176;11.792;2023-03-14T02:11:34;1.60;;;1.50;;
2656;SDS011;1338;48.176;11.792;2023-03-14T02:14:16;1.50;;;1.33;;
2656;SDS011;1338;48.176;11.792;2023-03-14T02:17:11;1.30;;;1.20;;
2656;SDS011;1338;48.176;11.792;2023-03-14T02:20:00;1.67;;;1.17;;
2656;SDS011;1338;48.176;11.792;2023-03-14T02:22:41;2.57;;;1.53;;
2656;SDS011;1338;48.176;11.792;2023-03-14T02:25:13;1.93;;;1.50;;
2656;SDS011;1338;48.176;11.792;2023-03-14T02:27:49;1.63;;;1.13;;
2656;SDS011;1338;48.176;11.792;2023-03-14T02:30:19;1.30;;;1.20;;
2656;SDS011;1338;48.176;11.792;2023-03-14T02:32:51;1.30;;;1.03;;
2656;SDS011;1338;48.176;11.792;2023-03-14T02:35:25;1.23;;;1.03;;
2656;SDS011;1338;48.176;11.792;2023-03-14T02:37:56;1.13;;;1.03;;
2656;SDS011;1338;48.176;11.792;2023-03-14T02:40:34;2.23;;;1.23;;
2656;SDS011;1338;48.176;11.792;2023-03-14T02:43:04;2.30;;;1.27;;
2656;SDS011;1338;48.176;11.792;2023-03-14T02:45:36;1.60;;;1.33;;
2656;SDS011;1338;48.176;11.792;2023-03-14T02:48:13;1.10;;;1.00;;
2656;SDS011;1338;48.176;11.792;2023-03-14T02:50:45;1.20;;;1.10;;
2656;SDS011;1338;48.176;11.792;2023-03-14T02:53:16;1.20;;;1.10;;
2656;SDS011;1338;48.176;11.792;2023-03-14T02:55:48;1.20;;;1.07;;
2656;SDS011;1338;48.176;11.792;2023-03-14T02:58:21;1.40;;;1.20;;
2656;SDS011;1338;48.176;11.792;2023-03-14T03:00:55;1.10;;;1.00;;
2656;SDS011;1338;48.176;11.792;2023-03-14T03:03:25;1.20;;;1.10;;
2656;SDS011;1338;48.176;11.792;2023-03-14T03:05:54;1.40;;;1.23;;
2656;SDS011;1338;48.176;11.792;2023-03-14T03:08:27;1.43;;;1.10;;
2656;SDS011;1338;48.176;11.792;2023-03-14T03:10:59;1.13;;;1.03;;
2656;SDS011;1338;48.176;11.792;2023-03-14T03:13:32;2.23;;;1.00;;
2656;SDS011;1338;48.176;11.792;2023-03-14T03:16:06;1.23;;;1.13;;
2656;SDS011;1338;48.176;11.792;2023-03-14T03:18:37;1.30;;;1.00;;
2656;SDS011;1338;48.176;11.792;2023-03-14T03:21:06;1.10;;;1.00;;
2656;SDS011;1338;48.176;11.792;2023-03-14T03:23:36;1.80;;;1.27;;
2656;SDS011;1338;48.176;11.792;2023-03-14T03:26:06;1.10;;;1.00;;
2656;SDS011;1338;48.176;11.792;2023-03-14T03:28:38;1.07;;;0.90;;
2656;SDS011;1338;48.176;11.792;2023-03-14T03:31:08;1.87;;;1.00;;
2656;SDS011;1338;48.176;11.792;2023-03-14T03:33:38;1.10;;;1.00;;
2656;SDS011;1338;48.176;11.792;2023-03-14T03:36:08;1.10;;;0.90;;
2656;SDS011;1338;48.176;11.792;2023-03-14T03:38:39;1.30;;;0.90;;
2656;SDS011;1338;48.176;11.792;2023-03-14T03:41:08;1.20;;;1.00;;
2656;SDS011;1338;48.176;11.792;2023-03-14T03:43:39;1.50;;;1.40;;
2656;SDS011;1338;48.176;11.792;2023-03-14T03:46:09;1.70;;;1.30;;
2656;SDS011;1338;48.176;11.792;2023-03-14T03:48:39;1.30;;;0.90;;
2656;SDS011;1338;48.176;11.792;2023-03-14T03:51:09;1.20;;;1.00;;
2656;SDS011;1338;48.176;11.792;2023-03-14T03:53:39;1.40;;;1.10;;
2656;SDS011;1338;48.176;11.792;2023-03-14T03:56:10;1.53;;;1.00;;
2656;SDS011;1338;48.176;11.792;2023-03-14T03:58:41;2.60;;;1.17;;
2656;SDS011;1338;48.176;11.792;2023-03-14T04:01:09;1.47;;;1.30;;
2656;SDS011;1338;48.176;11.792;2023-03-14T04:03:38;2.07;;;1.00;;
2656;SDS011;1338;48.176;11.792;2023-03-14T04:06:08;1.00;;;0.87;;
2656;SDS011;1338;48.176;11.792;2023-03-14T04:08:38;1.10;;;1.00;;
2656;SDS011;1338;48.176;11.792;2023-03-14T04:11:10;1.87;;;1.00;;
2656;SDS011;1338;48.176;11.792;2023-03-14T04:14:03;1.80;;;1.20;;
2656;SDS011;1338;48.176;11.792;2023-03-14T04:16:32;1.00;;;0.90;;
2656;SDS011;1338;48.176;11.792;2023-03-14T04:19:08;1.00;;;0.90;;
2656;SDS011;1338;48.176;11.792;2023-03-14T04:21:36;1.10;;;0.90;;
2656;SDS011;1338;48.176;11.792;2023-03-14T04:24:08;1.10;;;1.00;;
2656;SDS011;1338;48.176;11.792;2023-03-14T04:26:37;1.00;;;0.90;;
2656;SDS011;1338;48.176;11.792;2023-03-14T04:29:08;1.10;;;0.93;;
2656;SDS011;1338;48.176;11.792;2023-03-14T04:31:39;1.20;;;0.90;;
2656;SDS011;1338;48.176;11.792;2023-03-14T04:34:08;1.33;;;1.10;;
2656;SDS011;1338;48.176;11.792;2023-03-14T04:36:43;1.00;;;0.90;;
2656;SDS011;1338;48.176;11.792;2023-03-14T04:39:18;4.30;;;1.17;;
2656;SDS011;1338;48.176;11.792;2023-03-14T04:41:55;1.10;;;0.90;;
2656;SDS011;1338;48.176;11.792;2023-03-14T04:44:25;1.00;;;0.90;;
2656;SDS011;1338;48.176;11.792;2023-03-14T04:46:54;1.50;;;1.00;;
2656;SDS011;1338;48.176;11.792;2023-03-14T04:49:22;1.20;;;1.10;;
2656;SDS011;1338;48.176;11.792;2023-03-14T04:51:50;1.10;;;1.00;;
2656;SDS011;1338;48.176;11.792;2023-03-14T04:54:20;1.23;;;1.13;;
2656;SDS011;1338;48.176;11.792;2023-03-14T04:56:52;1.97;;;1.00;;
2656;SDS011;1338;48.176;11.792;2023-03-14T04:59:20;1.00;;;0.80;;
2656;SDS011;1338;48.176;11.792;2023-03-14T05:01:52;1.20;;;1.10;;
2656;SDS011;1338;48.176;11.792;2023-03-14T05:04:33;1.10;;;1.00;;
2656;SDS011;1338;48.176;11.792;2023-03-14T05:07:36;1.20;;;1.10;;
2656;SDS011;1338;48.176;11.792;2023-03-14T05:10:27;1.50;;;1.10;;
2656;SDS011;1338;48.176;11.792;2023-03-14T05:13:12;1.00;;;0.80;;
2656;SDS011;1338;48.176;11.792;2023-03-14T05:15:48;1.00;;;0.90;;
2656;SDS011;1338;48.176;11.792;2023-03-14T05:18:39;1.33;;;1.23;;
2656;SDS011;1338;48.176;11.792;2023-03-14T05:21:17;1.00;;;0.90;;
2656;SDS011;1338;48.176;11.792;2023-03-14T05:23:54;1.07;;;0.93;;
2656;SDS011;1338;48.176;11.792;2023-03-14T05:26:48;1.00;;;0.90;;
2656;SDS011;1338;48.176;11.792;2023-03-14T05:29:28;1.20;;;1.00;;
2656;SDS011;1338;48.176;11.792;2023-03-14T05:32:20;1.10;;;0.90;;
2656;SDS011;1338;48.176;11.792;2023-03-14T05:35:08;1.10;;;0.90;;
2656;SDS011;1338;48.176;11.792;2023-03-14T05:37:43;1.50;;;1.30;;
2656;SDS011;1338;48.176;11.792;2023-03-14T05:40:23;1.00;;;0.90;;
2656;SDS011;1338;48.176;11.792;2023-03-14T05:43:17;1.10;;;0.90;;
2656;SDS011;1338;48.176;11.792;2023-03-14T05:45:48;1.67;;;1.43;;
2656;SDS011;1338;48.176;11.792;2023-03-14T05:48:35;1.73;;;1.20;;
2656;SDS011;1338;48.176;11.792;2023-03-14T05:51:23;1.37;;;1.27;;
2656;SDS011;1338;48.176;11.792;2023-03-14T05:54:10;1.10;;;0.97;;
2656;SDS011;1338;48.176;11.792;2023-03-14T05:56:46;1.00;;;0.90;;
2656;SDS011;1338;48.176;11.792;2023-03-14T05:59:32;1.00;;;0.90;;
2656;SDS011;1338;48.176;11.792;2023-03-14T06:02:06;1.00;;;0.90;;
2656;SDS011;1338;48.176;11.792;2023-03-14T06:04:46;1.30;;;1.10;;
2656;SDS011;1338;48.176;11.792;2023-03-14T06:07:15;1.30;;;1.00;;
2656;SDS011;1338;48.176;11.792;2023-03-14T06:09:45;1.00;;;0.90;;
2656;SDS011;1338;48.176;11.792;2023-03-14T06:12:16;1.00;;;0.87;;
2656;SDS011;1338;48.176;11.792;2023-03-14T06:14:45;1.27;;;1.17;;
2656;SDS011;1338;48.176;11.792;2023-03-14T06:17:13;1.00;;;0.90;;
2656;SDS011;1338;48.176;11.792;2023-03-14T06:19:49;1.20;;;1.00;;
2656;SDS011;1338;48.176;11.792;2023-03-14T06:22:18;1.07;;;0.97;;
2656;SDS011;1338;48.176;11.792;2023-03-14T06:24:46;1.20;;;1.03;;
2656;SDS011;1338;48.176;11.792;2023-03-14T06:27:16;1.03;;;0.93;;
2656;SDS011;1338;48.176;11.792;2023-03-14T06:29:44;1.23;;;1.13;;
2656;SDS011;1338;48.176;11.792;2023-03-14T06:32:12;1.10;;;1.00;;
2656;SDS011;1338;48.176;11.792;2023-03-14T06:34:40;1.10;;;1.00;;
2656;SDS011;1338;48.176;11.792;2023-03-14T06:37:08;1.37;;;1.10;;
2656;SDS011;1338;48.176;11.792;2023-03-14T06:39:38;1.40;;;1.10;;
2656;SDS011;1338;48.176;11.792;2023-03-14T06:42:14;1.13;;;1.03;;
2656;SDS011;1338;48.176;11.792;2023-03-14T06:44:44;1.00;;;0.90;;
2656;SDS011;1338;48.176;11.792;2023-03-14T06:47:12;1.37;;;1.03;;
2656;SDS011;1338;48.176;11.792;2023-03-14T06:49:43;1.60;;;0.97;;
2656;SDS011;1338;48.176;11.792;2023-03-14T06:52:12;1.60;;;1.20;;
2656;SDS011;1338;48.176;11.792;2023-03-14T06:54:41;1.00;;;0.90;;
2656;SDS011;1338;48.176;11.792;2023-03-14T06:57:09;1.30;;;0.90;;
2656;SDS011;1338;48.176;11.792;2023-03-14T06:59:37;1.00;;;0.90;;
2656;SDS011;1338;48.176;11.792;2023-03-14T07:02:07;1.57;;;1.00;;
2656;SDS011;1338;48.176;11.792;2023-03-14T07:04:39;1.50;;;1.10;;
2656;SDS011;1338;48.176;11.792;2023-03-14T07:07:07;1.10;;;1.00;;
2656;SDS011;1338;48.176;11.792;2023-03-14T07:09:36;1.33;;;1.20;;
2656;SDS011;1338;48.176;11.792;2023-03-14T07:12:05;1.30;;;1.20;;
2656;SDS011;1338;48.176;11.792;2023-03-14T07:14:34;1.20;;;1.07;;
2656;SDS011;1338;48.176;11.792;2023-03-14T07:17:02;1.20;;;1.10;;
2656;SDS011;1338;48.176;11.792;2023-03-14T07:19:30;1.20;;;1.10;;
2656;SDS011;1338;48.176;11.792;2023-03-14T07:21:58;1.10;;;1.00;;
2656;SDS011;1338;48.176;11.792;2023-03-14T07:24:27;1.10;;;1.00;;
2656;SDS011;1338;48.176;11.792;2023-03-14T07:26:55;1.67;;;1.10;;
2656;SDS011;1338;48.176;11.792;2023-03-14T07:29:25;2.83;;;1.40;;
2656;SDS011;1338;48.176;11.792;2023-03-14T07:31:53;2.90;;;1.20;;
2656;SDS011;1338;48.176;11.792;2023-03-14T07:34:21;1.40;;;1.00;;
2656;SDS011;1338;48.176;11.792;2023-03-14T07:36:49;1.77;;;1.20;;
2656;SDS011;1338;48.176;11.792;2023-03-14T07:39:18;1.60;;;1.17;;
2656;SDS011;1338;48.176;11.792;2023-03-14T07:41:46;2.47;;;1.17;;
2656;SDS011;1338;48.176;11.792;2023-03-14T07:44:46;1.30;;;1.13;;
2656;SDS011;1338;48.176;11.792;2023-03-14T07:47:14;1.47;;;1.20;;
2656;SDS011;1338;48.176;11.792;2023-03-14T07:49:42;2.17;;;1.20;;
2656;SDS011;1338;48.176;11.792;2023-03-14T07:52:10;2.03;;;1.47;;
2656;SDS011;1338;48.176;11.792;2023-03-14T07:54:39;1.20;;;1.10;;
2656;SDS011;1338;48.176;11.792;2023-03-14T07:57:07;2.43;;;1.40;;
2656;SDS011;1338;48.176;11.792;2023-03-14T07:59:35;3.67;;;1.27;;
2656;SDS011;1338;48.176;11.792;2023-03-14T08:02:04;2.10;;;1.30;;
2656;SDS011;1338;48.176;11.792;2023-03-14T08:04:37;1.10;;;1.00;;
2656;SDS011;1338;48.176;11.792;2023-03-14T08:07:05;3.67;;;1.30;;
2656;SDS011;1338;48.176;11.792;2023-03-14T08:09:33;1.20;;;1.10;;
2656;SDS011;1338;48.176;11.792;2023-03-14T08:12:01;1.30;;;1.20;;
2656;SDS011;1338;48.176;11.792;2023-03-14T08:14:29;1.57;;;1.27;;
2656;SDS011;1338;48.176;11.792;2023-03-14T08:16:58;1.53;;;1.23;;
2656;SDS011;1338;48.176;11.792;2023-03-14T08:19:27;1.50;;;1.30;;
2656;SDS011;1338;48.176;11.792;2023-03-14T08:21:55;1.50;;;1.27;;
2656;SDS011;1338;48.176;11.792;2023-03-14T08:24:23;1.30;;;1.20;;
2656;SDS011;1338;48.176;11.792;2023-03-14T08:26:51;1.20;;;1.10;;
2656;SDS011;1338;48.176;11.792;2023-03-14T08:29:19;1.30;;;1.10;;
2656;SDS011;1338;48.176;11.792;2023-03-14T08:31:47;1.70;;;1.40;;
2656;SDS011;1338;48.176;11.792;2023-03-14T08:34:16;1.13;;;1.03;;
2656;SDS011;1338;48.176;11.792;2023-03-14T08:36:45;1.40;;;1.30;;
2656;SDS011;1338;48.176;11.792;2023-03-14T08:39:14;1.33;;;1.20;;
2656;SDS011;1338;48.176;11.792;2023-03-14T08:41:42;1.33;;;1.23;;
2656;SDS011;1338;48.176;11.792;2023-03-14T08:44:10;1.20;;;1.07;;
2656;SDS011;1338;48.176;11.792;2023-03-14T08:46:39;1.40;;;1.20;;
2656;SDS011;1338;48.176;11.792;2023-03-14T08:49:07;2.70;;;1.70;;
2656;SDS011;1338;48.176;11.792;2023-03-14T08:51:35;1.33;;;1.07;;
2656;SDS011;1338;48.176;11.792;2023-03-14T08:54:05;1.40;;;1.10;;
2656;SDS011;1338;48.176;11.792;2023-03-14T08:56:33;1.70;;;1.40;;
2656;SDS011;1338;48.176;11.792;2023-03-14T08:59:04;1.40;;;1.23;;
2656;SDS011;1338;48.176;11.792;2023-03-14T09:01:32;1.30;;;1.10;;
2656;SDS011;1338;48.176;11.792;2023-03-14T09:04:00;1.43;;;1.33;;
2656;SDS011;1338;48.176;11.792;2023-03-14T09:06:28;1.40;;;1.20;;
2656;SDS011;1338;48.176;11.792;2023-03-14T09:08:56;1.50;;;1.27;;
2656;SDS011;1338;48.176;11.792;2023-03-14T09:11:26;1.30;;;1.10;;
2656;SDS011;1338;48.176;11.792;2023-03-14T09:13:54;1.73;;;1.20;;
2656;SDS011;1338;48.176;11.792;2023-03-14T09:16:22;1.97;;;1.10;;
2656;SDS011;1338;48.176;11.792;2023-03-14T09:18:50;1.50;;;1.23;;
2656;SDS011;1338;48.176;11.792;2023-03-14T09:21:20;1.20;;;1.10;;
2656;SDS011;1338;48.176;11.792;2023-03-14T09:23:48;2.13;;;1.10;;
2656;SDS011;1338;48.176;11.792;2023-03-14T09:26:16;2.90;;;1.20;;
2656;SDS011;1338;48.176;11.792;2023-03-14T09:28:46;1.10;;;1.00;;
2656;SDS011;1338;48.176;11.792;2023-03-14T09:31:15;1.70;;;1.37;;
2656;SDS011;1338;48.176;11.792;2023-03-14T09:33:43;1.40;;;1.20;;
2656;SDS011;1338;48.176;11.792;2023-03-14T09:36:11;2.43;;;1.43;;
2656;SDS011;1338;48.176;11.792;2023-03-14T09:38:39;1.30;;;1.10;;
2656;SDS011;1338;48.176;11.792;2023-03-14T09:41:14;1.33;;;1.20;;
2656;SDS011;1338;48.176;11.792;2023-03-14T09:43:46;6.10;;;1.40;;
2656;SDS011;1338;48.176;11.792;2023-03-14T09:46:17;1.60;;;1.33;;
2656;SDS011;1338;48.176;11.792;2023-03-14T09:48:46;1.40;;;1.30;;
2656;SDS011;1338;48.176;11.792;2023-03-14T09:51:14;1.47;;;1.10;;
2656;SDS011;1338;48.176;11.792;2023-03-14T09:53:46;1.27;;;1.10;;
2656;SDS011;1338;48.176;11.792;2023-03-14T09:56:16;1.67;;;1.10;;
2656;SDS011;1338;48.176;11.792;2023-03-14T09:58:50;2.43;;;1.30;;
2656;SDS011;1338;48.176;11.792;2023-03-14T10:01:22;1.30;;;1.10;;
2656;SDS011;1338;48.176;11.792;2023-03-14T10:03:54;1.60;;;1.30;;
2656;SDS011;1338;48.176;11.792;2023-03-14T10:06:25;2.53;;;1.23;;
2656;SDS011;1338;48.176;11.792;2023-03-14T10:08:56;3.23;;;1.53;;
2656;SDS011;1338;48.176;11.792;2023-03-14T10:11:25;1.70;;;1.23;;
2656;SDS011;1338;48.176;11.792;2023-03-14T10:14:06;1.70;;;1.40;;
2656;SDS011;1338;48.176;11.792;2023-03-14T10:16:36;1.77;;;1.60;;
2656;SDS011;1338;48.176;11.792;2023-03-14T10:19:09;2.43;;;1.60;;
2656;SDS011;1338;48.176;11.792;2023-03-14T10:21:40;2.20;;;1.60;;
2656;SDS011;1338;48.176;11.792;2023-03-14T10:24:10;1.50;;;1.40;;
2656;SDS011;1338;48.176;11.792;2023-03-14T10:26:49;1.67;;;1.57;;
2656;SDS011;1338;48.176;11.792;2023-03-14T10:29:22;1.57;;;1.47;;
2656;SDS011;1338;48.176;11.792;2023-03-14T10:31:51;1.40;;;1.00;;
2656;SDS011;1338;48.176;11.792;2023-03-14T10:34:22;1.80;;;1.50;;
2656;SDS011;1338;48.176;11.792;2023-03-14T10:36:53;1.60;;;1.10;;
2656;SDS011;1338;48.176;11.792;2023-03-14T10:39:27;1.40;;;1.30;;
2656;SDS011;1338;48.176;11.792;2023-03-14T10:42:15;1.50;;;1.33;;
2656;SDS011;1338;48.176;11.792;2023-03-14T10:44:50;1.40;;;1.30;;
2656;SDS011;1338;48.176;11.792;2023-03-14T10:47:24;1.40;;;1.30;;
2656;SDS011;1338;48.176;11.792;2023-03-14T10:49:54;4.50;;;1.43;;
2656;SDS011;1338;48.176;11.792;2023-03-14T10:52:26;1.50;;;1.40;;
2656;SDS011;1338;48.176;11.792;2023-03-14T10:55:19;1.50;;;1.30;;
2656;SDS011;1338;48.176;11.792;2023-03-14T10:57:49;1.40;;;1.27;;
2656;SDS011;1338;48.176;11.792;2023-03-14T11:00:21;1.53;;;1.33;;
2656;SDS011;1338;48.176;11.792;2023-03-14T11:02:57;2.50;;;1.40;;
2656;SDS011;1338;48.176;11.792;2023-03-14T11:05:34;1.70;;;1.27;;
2656;SDS011;1338;48.176;11.792;2023-03-14T11:08:09;1.47;;;1.20;;
2656;SDS011;1338;48.176;11.792;2023-03-14T11:10:41;2.13;;;1.40;;
2656;SDS011;1338;48.176;11.792;2023-03-14T11:13:15;1.40;;;1.30;;
2656;SDS011;1338;48.176;11.792;2023-03-14T11:15:50;1.53;;;1.43;;
2656;SDS011;1338;48.176;11.792;2023-03-14T11:21:29;1.30;;;1.20;;
2656;SDS011;1338;48.176;11.792;2023-03-14T11:24:09;1.47;;;1.30;;
2656;SDS011;1338;48.176;11.792;2023-03-14T11:26:57;1.90;;;1.73;;
2656;SDS011;1338;48.176;11.792;2023-03-14T11:29:33;1.47;;;1.37;;
2656;SDS011;1338;48.176;11.792;2023-03-14T11:32:13;1.37;;;1.27;;
2656;SDS011;1338;48.176;11.792;2023-03-14T11:34:49;1.53;;;1.40;;
2656;SDS011;1338;48.176;11.792;2023-03-14T11:37:22;2.27;;;1.50;;
2656;SDS011;1338;48.176;11.792;2023-03-14T11:39:56;1.33;;;1.23;;
2656;SDS011;1338;48.176;11.792;2023-03-14T11:42:31;1.97;;;1.57;;
2656;SDS011;1338;48.176;11.792;2023-03-14T11:45:01;1.40;;;1.30;;
2656;SDS011;1338;48.176;11.792;2023-03-14T11:47:34;1.40;;;1.30;;
2656;SDS011;1338;48.176;11.792;2023-03-14T11:50:12;2.57;;;1.37;;
2656;SDS011;1338;48.176;11.792;2023-03-14T11:52:46;1.70;;;1.20;;
2656;SDS011;1338;48.176;11.792;2023-03-14T11:55:19;1.40;;;1.30;;
2656;SDS011;1338;48.176;11.792;2023-03-14T11:57:53;1.20;;;1.10;;
2656;SDS011;1338;48.176;11.792;2023-03-14T12:00:26;1.40;;;1.30;;
2656;SDS011;1338;48.176;11.792;2023-03-14T12:02:59;2.03;;;0.97;;
2656;SDS011;1338;48.176;11.792;2023-03-14T12:05:40;1.23;;;1.13;;
2656;SDS011;1338;48.176;11.792;2023-03-14T12:08:25;1.43;;;1.33;;
2656;SDS011;1338;48.176;11.792;2023-03-14T12:11:09;1.20;;;1.10;;
2656;SDS011;1338;48.176;11.792;2023-03-14T12:13:41;1.30;;;1.20;;
2656;SDS011;1338;48.176;11.792;2023-03-14T12:16:25;1.30;;;1.20;;
2656;SDS011;1338;48.176;11.792;2023-03-14T12:19:26;2.57;;;1.27;;
2656;SDS011;1338;48.176;11.792;2023-03-14T12:22:01;1.60;;;1.50;;
2656;SDS011;1338;48.176;11.792;2023-03-14T12:24:37;1.93;;;1.20;;
2656;SDS011;1338;48.176;11.792;2023-03-14T12:27:13;1.77;;;1.10;;
2656;SDS011;1338;48.176;11.792;2023-03-14T12:30:29;1.30;;;1.20;;
2656;SDS011;1338;48.176;11.792;2023-03-14T12:36:12;1.27;;;1.17;;
2656;SDS011;1338;48.176;11.792;2023-03-14T12:39:00;1.40;;;1.13;;
2656;SDS011;1338;48.176;11.792;2023-03-14T12:41:36;1.50;;;1.30;;
2656;SDS011;1338;48.176;11.792;2023-03-14T12:50:20;1.30;;;1.17;;
2656;SDS011;1338;48.176;11.792;2023-03-14T12:55:57;1.10;;;1.00;;
2656;SDS011;1338;48.176;11.792;2023-03-14T12:58:35;1.13;;;1.03;;
2656;SDS011;1338;48.176;11.792;2023-03-14T13:01:14;1.30;;;1.20;;
2656;SDS011;1338;48.176;11.792;2023-03-14T13:03:45;1.20;;;1.10;;
2656;SDS011;1338;48.176;11.792;2023-03-14T13:12:29;1.40;;;1.10;;
2656;SDS011;1338;48.176;11.792;2023-03-14T13:15:13;1.37;;;1.10;;
2656;SDS011;1338;48.176;11.792;2023-03-14T13:17:46;1.20;;;1.10;;
2656;SDS011;1338;48.176;11.792;2023-03-14T13:20:18;1.17;;;0.90;;
2656;SDS011;1338;48.176;11.792;2023-03-14T13:22:56;1.50;;;1.20;;
2656;SDS011;1338;48.176;11.792;2023-03-14T13:25:28;1.17;;;1.07;;
2656;SDS011;1338;48.176;11.792;2023-03-14T13:28:02;1.10;;;1.00;;
2656;SDS011;1338;48.176;11.792;2023-03-14T13:30:38;1.30;;;1.10;;
2656;SDS011;1338;48.176;11.792;2023-03-14T13:33:14;1.13;;;1.03;;
2656;SDS011;1338;48.176;11.792;2023-03-14T13:35:44;1.20;;;1.10;;
2656;SDS011;1338;48.176;11.792;2023-03-14T13:38:18;1.20;;;1.10;;
2656;SDS011;1338;48.176;11.792;2023-03-14T13:40:50;1.23;;;1.00;;
2656;SDS011;1338;48.176;11.792;2023-03-14T13:43:27;1.30;;;1.17;;
2656;SDS011;1338;48.176;11.792;2023-03-14T13:46:01;1.57;;;1.47;;
2656;SDS011;1338;48.176;11.792;2023-03-14T13:48:33;1.10;;;1.00;;
2656;SDS011;1338;48.176;11.792;2023-03-14T13:51:09;1.10;;;1.00;;
2656;SDS011;1338;48.176;11.792;2023-03-14T13:53:44;1.10;;;1.00;;
2656;SDS011;1338;48.176;11.792;2023-03-14T13:56:13;1.20;;;1.10;;
2656;SDS011;1338;48.176;11.792;2023-03-14T13:58:43;1.57;;;0.97;;
2656;SDS011;1338;48.176;11.792;2023-03-14T14:01:14;1.40;;;0.97;;
2656;SDS011;1338;48.176;11.792;2023-03-14T14:03:45;2.43;;;1.00;;
2656;SDS011;1338;48.176;11.792;2023-03-14T14:06:28;1.10;;;1.00;;
2656;SDS011;1338;48.176;11.792;2023-03-14T14:08:59;1.23;;;1.10;;
2656;SDS011;1338;48.176;11.792;2023-03-14T14:11:33;1.03;;;0.90;;
2656;SDS011;1338;48.176;11.792;2023-03-14T14:14:21;1.30;;;0.90;;
2656;SDS011;1338;48.176;11.792;2023-03-14T14:16:59;1.10;;;0.90;;
2656;SDS011;1338;48.176;11.792;2023-03-14T14:19:29;1.00;;;0.90;;
2656;SDS011;1338;48.176;11.792;2023-03-14T14:21:59;1.20;;;1.10;;
2656;SDS011;1338;48.176;11.792;2023-03-14T14:24:29;1.10;;;0.97;;
2656;SDS011;1338;48.176;11.792;2023-03-14T14:27:00;1.03;;;0.93;;
2656;SDS011;1338;48.176;11.792;2023-03-14T14:29:32;1.20;;;1.10;;
2656;SDS011;1338;48.176;11.792;2023-03-14T14:32:03;1.17;;;1.00;;
2656;SDS011;1338;48.176;11.792;2023-03-14T14:34:39;1.40;;;1.00;;
2656;SDS011;1338;48.176;11.792;2023-03-14T14:37:19;1.30;;;1.07;;
2656;SDS011;1338;48.176;11.792;2023-03-14T14:39:52;1.10;;;0.90;;
2656;SDS011;1338;48.176;11.792;2023-03-14T14:42:24;1.30;;;1.17;;
2656;SDS011;1338;48.176;11.792;2023-03-14T14:44:57;2.30;;;1.20;;
2656;SDS011;1338;48.176;11.792;2023-03-14T14:47:28;2.23;;;1.63;;
2656;SDS011;1338;48.176;11.792;2023-03-14T14:49:59;1.47;;;1.20;;
2656;SDS011;1338;48.176;11.792;2023-03-14T14:52:34;1.10;;;0.90;;
2656;SDS011;1338;48.176;11.792;2023-03-14T14:55:12;1.10;;;1.00;;
2656;SDS011;1338;48.176;11.792;2023-03-14T14:57:48;1.53;;;1.10;;
2656;SDS011;1338;48.176;11.792;2023-03-14T15:00:20;2.40;;;1.13;;
2656;SDS011;1338;48.176;11.792;2023-03-14T15:02:50;1.30;;;1.00;;
2656;SDS011;1338;48.176;11.792;2023-03-14T15:05:23;1.17;;;1.07;;
2656;SDS011;1338;48.176;11.792;2023-03-14T15:07:53;1.10;;;0.90;;
2656;SDS011;1338;48.176;11.792;2023-03-14T15:10:23;1.30;;;1.20;;
2656;SDS011;1338;48.176;11.792;2023-03-14T15:12:52;1.20;;;1.00;;
2656;SDS011;1338;48.176;11.792;2023-03-14T15:15:23;1.37;;;1.20;;
2656;SDS011;1338;48.176;11.792;2023-03-14T15:17:52;1.03;;;0.90;;
2656;SDS011;1338;48.176;11.792;2023-03-14T15:20:21;1.20;;;1.10;;
2656;SDS011;1338;48.176;11.792;2023-03-14T15:22:50;1.00;;;0.90;;
2656;SDS011;1338;48.176;11.792;2023-03-14T15:25:20;1.30;;;1.20;;
2656;SDS011;1338;48.176;11.792;2023-03-14T15:28:11;1.40;;;1.30;;
2656;SDS011;1338;48.176;11.792;2023-03-14T15:30:48;1.10;;;1.00;;
2656;SDS011;1338;48.176;11.792;2023-03-14T15:33:18;1.37;;;1.10;;
2656;SDS011;1338;48.176;11.792;2023-03-14T15:35:48;1.10;;;1.00;;
2656;SDS011;1338;48.176;11.792;2023-03-14T15:38:17;1.20;;;1.10;;
2656;SDS011;1338;48.176;11.792;2023-03-14T15:40:49;1.30;;;1.00;;
2656;SDS011;1338;48.176;11.792;2023-03-14T15:43:18;1.60;;;1.37;;
2656;SDS011;1338;48.176;11.792;2023-03-14T15:45:49;1.80;;;1.67;;
2656;SDS011;1338;48.176;11.792;2023-03-14T15:48:20;1.80;;;1.70;;
2656;SDS011;1338;48.176;11.792;2023-03-14T15:50:49;2.37;;;2.10;;
2656;SDS011;1338;48.176;11.792;2023-03-14T15:53:18;2.47;;;2.33;;
2656;SDS011;1338;48.176;11.792;2023-03-14T15:55:46;2.23;;;2.13;;
2656;SDS011;1338;48.176;11.792;2023-03-14T15:58:17;2.30;;;2.10;;